Stations météo

réclame
Mon MeteoGroup
Carlsfeld, Allemagne (10574): Température de l'air & dewpoint: 14.06.2018 17:00:00 - 20.06.2018 17:00:00 (CEST)Carlsfeld, Allemagne (10574): Température de l'air 5cm & Température de l'air -5cm: 14.06.2018 17:00:00 - 20.06.2018 17:00:00 (CEST)Carlsfeld, Allemagne (10574): Température de l'air -20cm & Température de l'air -100cm: 14.06.2018 17:00:00 - 20.06.2018 17:00:00 (CEST)Carlsfeld, Allemagne (10574): Vitesse du vent & gusts: 14.06.2018 17:00:00 - 20.06.2018 17:00:00 (CEST)Carlsfeld, Allemagne (10574): Direction du vent: 14.06.2018 17:00:00 - 20.06.2018 17:00:00 (CEST)Carlsfeld, Allemagne (10574): visibility: 14.06.2018 17:00:00 - 20.06.2018 17:00:00 (CEST)Carlsfeld, Allemagne (10574): Ensoleillement: 14.06.2018 17:00:00 - 20.06.2018 17:00:00 (CEST)Carlsfeld, Allemagne (10574): Quantités de précipitations: 14.06.2018 17:00:00 - 20.06.2018 17:00:00 (CEST)
Date & Time tt [°C] td [°C] tt 5cm [°C] tt -5cm [°C] tt -20cm [°C] tt -100cm [°C] ff [km/h] ff [knt] fx [km/h] fx [knt] dd vv [km] sd [min] rr [mm]
20.06.2018 17:00:00 22,9 12,4 24,8 27,0 18,8 13,5 12 7 22 12 SW 23 50 0,0
20.06.2018 16:00:00 22,2 12,6 24,5 26,2 18,4 13,5 10 6 23 13 SW 48 47 0,0
20.06.2018 15:00:00 21,6 13,0 23,8 25,3 17,9 13,5 9 5 23 13 SW 49 27 0,0
20.06.2018 14:00:00 21,1 12,7 23,6 24,6 17,3 13,5 9 5 22 12 SSW 36 22 0,0
20.06.2018 13:00:00 21,0 12,9 26,1 24,2 16,8 13,5 10 6 21 11 SSW 31 39 0,0
20.06.2018 12:00:00 19,3 12,5 21,1 23,6 16,3 13,5 11 6 27 15 W 41 39 0,0
20.06.2018 11:00:00 18,8 12,1 22,0 21,4 15,9 13,5 11 6 27 15 SW 51 43 0,0
20.06.2018 10:00:00 17,9 13,0 21,0 18,8 15,6 13,5 12 6 21 12 SSE 35 21 0,0
20.06.2018 09:00:00 17,5 12,9 20,5 18,1 15,4 13,5 12 6 22 12 SSE 28 59 0,0
20.06.2018 08:00:00 16,6 12,8 18,0 16,0 15,4 13,5 9 5 18 10 S 28 59 0,0
20.06.2018 07:00:00 15,1 12,9 15,7 14,4 15,5 13,5 5 3 8 4 SE 25 22 0,0
20.06.2018 06:00:00 13,1 12,4 12,7 14,0 15,7 13,5 4 2 6 3 ESE 19 0 0,0
20.06.2018 05:00:00 12,5 11,9 10,4 14,2 15,9 13,5 2 1 3 2 SE 19 0 0,0
20.06.2018 04:00:00 13,1 12,3 12,0 14,7 16,0 13,5 0 0 4 2 N 24 0 0,0
20.06.2018 03:00:00 13,2 12,2 12,5 14,9 16,2 13,5 0 0 5 3 N 29 0 0,0
20.06.2018 02:00:00 13,5 12,3 12,6 15,2 16,3 13,5 0 0 5 3 N 30 0 0,0
20.06.2018 01:00:00 13,9 12,6 12,5 15,6 16,5 13,5 0 0 6 4 N 27 0 0,0
20.06.2018 00:00:00 14,0 12,7 13,5 16,0 16,6 13,5 2 1 5 3 N 32 0 0,0
19.06.2018 23:00:00 14,3 12,7 13,6 16,4 16,7 13,5 3 2 4 2 W 32 0 0,0
19.06.2018 22:00:00 15,2 12,7 14,1 17,1 16,8 13,5 2 1 9 5 N 35 0 0,0
19.06.2018 21:00:00 16,2 12,7 15,9 17,8 16,8 13,5 3 2 11 6 N 43 0 0,0
19.06.2018 20:00:00 16,8 12,6 16,6 18,5 16,7 13,5 2 1 11 6 NW 53 0 0,0
19.06.2018 19:00:00 17,5 12,4 17,7 19,1 16,6 13,5 3 2 9 5 NW 58 0 0,0
19.06.2018 18:00:00 17,8 12,5 18,4 19,6 16,4 13,5 3 2 22 12 WNW 42 4 0,0
19.06.2018 17:00:00 18,1 12,2 21,5 19,8 16,2 13,5 6 3 16 9 NW 43 2 0,0
19.06.2018 16:00:00 17,4 12,1 19,4 19,2 15,9 13,5 6 3 20 11 W 41 0 0,0
19.06.2018 15:00:00 17,2 12,0 18,8 19,1 15,6 13,5 9 5 22 12 W 58 0 0,0
19.06.2018 14:00:00 17,2 12,0 19,0 19,3 15,3 13,5 10 6 22 12 W 48 7 0,0
19.06.2018 13:00:00 16,2 11,8 17,2 18,6 15,0 13,5 11 6 21 12 W 55 6 0,0
19.06.2018 12:00:00 16,1 11,3 18,0 17,8 14,6 13,5 8 4 19 10 W 53 2 0,0
19.06.2018 11:00:00 15,9 11,6 17,9 17,5 14,4 13,5 7 4 19 10 WNW 35 20 0,0
19.06.2018 10:00:00 14,3 11,9 15,9 15,0 14,2 13,5 6 3 19 10 WNW 24 0 0,0
19.06.2018 09:00:00 14,5 11,9 15,0 14,6 14,1 13,5 5 3 16 9 NW 42 10 0,0
19.06.2018 08:00:00 13,6 11,6 13,7 12,9 14,2 13,5 5 3 14 8 W 35 1 0,0
19.06.2018 07:00:00 12,4 11,1 12,0 11,5 14,4 13,5 3 2 11 6 W 33 3 0,0
19.06.2018 06:00:00 10,9 10,3 10,6 10,6 14,7 13,5 4 2 13 7 WNW 27 0 0,0
19.06.2018 05:00:00 9,2 9,0 5,1 10,5 15,1 13,5 0 0 7 4 N 21 0 0,0
19.06.2018 04:00:00 9,2 8,9 5,1 10,9 15,4 13,5 3 2 8 4 WNW 15 0 0,0
19.06.2018 03:00:00 8,8 8,4 5,2 11,4 15,8 13,5 5 3 8 4 W 18 0 0,0
19.06.2018 02:00:00 9,0 8,5 4,8 12,1 16,2 13,5 3 1 5 3 W 18 0 0,0
19.06.2018 01:00:00 9,3 8,6 5,2 12,9 16,6 13,5 0 0 6 3 N 23 0 0,0
19.06.2018 00:00:00 10,3 9,4 6,4 13,8 16,9 13,5 2 1 9 5 W 30 0 0,0
18.06.2018 23:00:00 10,5 9,5 6,7 14,9 17,2 13,5 3 2 9 5 W 28 0 0,0
18.06.2018 22:00:00 12,2 10,6 7,9 16,3 17,4 13,5 4 2 6 3 W 26 0 0,0
18.06.2018 21:00:00 14,4 10,9 10,6 18,0 17,4 13,5 2 1 9 5 W 53 4 0,0
18.06.2018 20:00:00 16,0 11,0 16,0 19,0 17,4 13,5 3 2 15 8 WNW 61 0 0,0
18.06.2018 19:00:00 16,7 10,3 16,8 19,8 17,3 13,5 4 2 9 5 NW 54 2 0,0
18.06.2018 18:00:00 16,4 9,9 17,4 20,0 17,2 13,5 4 2 13 7 NNW 59 0 0,0
18.06.2018 17:00:00 16,6 9,4 17,6 20,6 16,9 13,5 6 3 13 7 WNW 44 0 0,0
18.06.2018 16:00:00 16,1 9,9 17,2 20,9 16,6 13,5 6 3 22 12 WNW 70 12 0,0
18.06.2018 15:00:00 16,0 9,8 18,3 21,2 16,3 13,5 6 4 19 11 NW 44 15 0,0
18.06.2018 14:00:00 15,7 8,9 17,2 20,5 16,0 13,5 6 4 21 11 NNW 51 17 0,0
18.06.2018 13:00:00 14,7 8,6 16,1 19,0 15,7 13,5 6 3 24 13 NNW 58 11 0,0
18.06.2018 12:00:00 14,1 8,7 16,1 18,3 15,3 13,5 8 4 20 11 WNW 31 3 0,0
18.06.2018 11:00:00 14,0 9,2 15,1 19,1 15,0 13,5 7 4 22 12 WNW 28 26 0,0
18.06.2018 10:00:00 13,6 9,1 16,9 17,7 14,7 13,5 8 5 17 9 WNW 29 35 0,0
18.06.2018 09:00:00 13,6 9,5 16,7 15,5 14,6 13,5 4 2 12 7 NW 40 41 0,0
18.06.2018 08:00:00 12,6 9,0 14,7 13,9 14,7 13,5 5 3 13 7 W 29 58 0,0
18.06.2018 07:00:00 10,9 9,2 11,1 12,1 14,9 13,5 5 3 10 5 WNW 32 35 0,0
18.06.2018 06:00:00 8,6 8,3 8,4 11,5 15,2 13,5 4 2 6 4 SW 16 0 0,0
18.06.2018 05:00:00 8,5 8,0 7,6 11,6 15,5 13,5 5 3 9 5 W 12 0 0,0
18.06.2018 04:00:00 7,9 7,5 6,7 11,8 15,9 13,5 5 3 7 4 WSW 13 0 0,0
18.06.2018 03:00:00 8,0 7,6 7,0 12,4 16,2 13,5 6 3 9 5 W 11 0 0,0
18.06.2018 02:00:00 8,9 8,5 7,5 13,1 16,6 13,5 6 3 7 4 W 12 0 0,0
18.06.2018 01:00:00 9,1 8,6 7,8 13,7 17,0 13,5 3 2 6 3 WSW 12 0 0,0
18.06.2018 00:00:00 9,5 8,8 8,2 14,6 17,3 13,5 5 3 9 5 W 14 0 0,0
17.06.2018 23:00:00 11,0 10,1 8,6 15,8 17,6 13,5 3 2 9 5 NNW 17 0 0,0
17.06.2018 22:00:00 12,5 11,5 10,7 17,1 17,8 13,5 3 1 8 5 N 7 0 0,0
17.06.2018 21:00:00 14,2 12,3 13,5 18,4 17,8 13,5 4 2 12 6 N 14 0 0,0
17.06.2018 20:00:00 15,1 12,9 15,2 19,5 17,8 13,5 6 3 14 7 N 15 0 0,0
17.06.2018 19:00:00 16,1 13,2 16,6 20,7 17,7 13,5 5 3 28 15 N 20 25 0,0
17.06.2018 18:00:00 17,4 13,2 17,8 21,6 17,5 13,5 11 6 26 14 W 22 42 0,0
17.06.2018 17:00:00 16,2 14,4 18,4 21,0 17,3 13,5 6 3 11 6 ENE 8 4 0,3
17.06.2018 16:00:00 17,3 14,3 17,6 21,2 17,1 13,5 5 3 11 6 WSW 16 12 0,0
17.06.2018 15:00:00 16,0 14,7 16,3 20,0 16,9 13,5 6 3 13 7 W 9 0 1,1
17.06.2018 14:00:00 16,0 14,5 15,7 20,5 16,5 13,5 4 2 23 12 NW 6 9 4,7
17.06.2018 13:00:00 16,8 12,8 15,2 21,8 16,0 13,5 10 5 24 13 W 12 23 0,2
17.06.2018 12:00:00 19,3 9,3 20,2 21,1 15,7 13,5 10 5 24 13 W 42 30 0,0
17.06.2018 11:00:00 18,4 10,1 20,8 18,7 15,3 13,5 8 4 21 11 W 37 9 0,0
17.06.2018 10:00:00 18,7 10,0 19,5 18,8 15,0 13,5 7 4 19 10 WNW 34 40 0,0
17.06.2018 09:00:00 18,5 10,8 21,0 16,9 14,9 13,5 9 5 17 9 W 28 54 0,0
17.06.2018 08:00:00 16,5 10,3 16,6 14,6 15,0 13,5 6 3 11 6 W 28 33 0,0
17.06.2018 07:00:00 13,6 9,4 13,5 13,1 15,1 13,5 5 3 11 6 W 31 15 0,0
17.06.2018 06:00:00 12,2 9,0 11,0 12,8 15,4 13,5 5 3 12 7 SW 24 0 0,0
17.06.2018 05:00:00 13,9 8,0 12,0 12,8 15,6 13,5 7 4 16 8 SW 33 0 0,0
17.06.2018 04:00:00 13,7 7,9 10,5 12,8 15,9 13,5 8 4 14 8 SSW 27 0 0,0
17.06.2018 03:00:00 14,8 7,9 12,0 13,5 16,2 13,5 9 5 16 9 SSW 31 0 0,0
17.06.2018 02:00:00 14,9 7,9 12,7 14,1 16,4 13,5 10 5 15 8 SSW 30 0 0,0
17.06.2018 01:00:00 15,0 8,2 12,5 14,7 16,7 13,5 8 4 14 7 SSW 30 0 0,0
17.06.2018 00:00:00 15,4 8,7 13,7 15,4 16,9 13,5 7 4 14 7 S 31 0 0,0
16.06.2018 23:00:00 14,8 9,5 13,2 16,0 17,2 13,5 7 4 12 7 S 26 0 0,0
16.06.2018 22:00:00 13,8 11,2 11,3 17,0 17,3 13,5 3 2 5 3 SW 18 0 0,0
16.06.2018 21:00:00 15,9 11,6 11,8 18,6 17,3 13,5 3 1 4 2 SSE 22 0 0,0
16.06.2018 20:00:00 18,2 12,3 17,0 19,9 17,2 13,5 0 0 7 4 N 25 1 0,0
16.06.2018 19:00:00 18,8 9,5 19,3 20,7 17,0 13,5 4 2 13 7 SSE 30 0 0,0
16.06.2018 18:00:00 19,1 8,2 20,3 21,3 16,7 13,5 5 3 14 8 SSW 29 3 0,0
16.06.2018 17:00:00 19,1 8,7 20,7 21,6 16,4 13,5 6 3 13 7 E 29 20 0,0
16.06.2018 16:00:00 18,4 9,0 19,2 20,3 16,2 13,5 5 3 11 6 W 27 0 0,0
16.06.2018 15:00:00 18,3 8,3 19,8 19,8 15,9 13,5 4 2 8 5 SSW 27 0 0,0
16.06.2018 14:00:00 17,8 8,1 18,8 19,8 15,6 13,5 4 2 19 11 S 31 1 0,0
16.06.2018 13:00:00 17,9 7,8 19,4 19,6 15,3 13,5 6 3 14 7 ESE 34 7 0,0
16.06.2018 12:00:00 17,1 8,7 18,9 18,3 15,0 13,5 8 5 14 8 ENE 26 5 0,0
16.06.2018 11:00:00 16,8 8,4 18,0 17,9 14,7 13,5 4 2 13 7 ENE 36 2 0,0
16.06.2018 10:00:00 16,6 8,6 18,3 16,8 14,5 13,5 7 4 15 8 S 30 3 0,0
16.06.2018 09:00:00 15,1 8,9 16,2 14,9 14,5 13,5 9 5 14 8 SSE 24 0 0,0
16.06.2018 08:00:00 13,9 9,7 14,5 13,8 14,5 13,6 4 2 9 5 SSE 22 0 0,0
16.06.2018 07:00:00 12,5 9,9 12,8 13,0 14,6 13,6 2 1 9 5 SE 18 0 0,0
16.06.2018 06:00:00 12,2 9,4 11,8 12,8 14,8 13,6 4 2 12 7 S 17 0 0,0
16.06.2018 05:00:00 12,2 9,3 11,3 12,8 15,0 13,6 3 2 12 6 S 16 0 0,0
16.06.2018 04:00:00 12,5 9,2 11,7 12,9 15,2 13,6 6 3 14 8 S 17 0 0,0
16.06.2018 03:00:00 12,6 9,0 11,7 13,0 15,4 13,6 5 3 14 7 S 21 0 0,0
16.06.2018 02:00:00 12,1 9,4 10,9 13,1 15,7 13,6 4 2 10 5 S 21 0 0,0
16.06.2018 01:00:00 11,0 9,9 10,0 13,1 16,0 13,6 3 1 8 5 S 7 0 0,0
16.06.2018 00:00:00 10,9 9,9 9,0 13,5 16,3 13,6 4 2 7 4 S 9 0 0,0
15.06.2018 23:00:00 10,2 9,4 6,9 14,5 16,6 13,6 3 2 6 4 SSE 7 0 0,0
15.06.2018 22:00:00 11,6 10,1 8,5 16,0 16,8 13,6 2 1 7 4 NE 10 0 0,0
15.06.2018 21:00:00 13,7 10,2 11,8 17,6 16,9 13,7 3 2 15 8 NE 18 10 0,0
15.06.2018 20:00:00 15,6 10,3 15,6 19,1 16,8 13,7 6 3 17 9 NNE 24 35 0,0
15.06.2018 19:00:00 15,9 9,1 16,5 20,1 16,7 13,7 8 4 18 10 NNE 19 47 0,0
15.06.2018 18:00:00 16,1 10,3 17,8 20,5 16,5 13,7 8 4 19 10 NE 22 33 0,0
15.06.2018 17:00:00 15,9 10,0 16,9 20,1 16,2 13,7 5 3 17 9 N 31 0 0,0
15.06.2018 16:00:00 16,7 8,6 18,3 21,6 15,9 13,7 6 3 16 9 WNW 39 14 0,0
15.06.2018 15:00:00 16,4 7,8 19,0 21,6 15,5 13,7 8 4 16 8 E 31 24 0,0
15.06.2018 14:00:00 15,4 8,4 16,8 20,5 15,0 13,7 6 3 23 13 ENE 38 0 0,0
15.06.2018 13:00:00 16,2 8,4 18,8 22,2 14,3 13,8 7 4 20 11 NNE 34 39 0,0
15.06.2018 12:00:00 15,5 8,8 21,0 20,1 13,7 13,8 13 7 19 10 ENE 21 45 0,0
15.06.2018 11:00:00 14,0 8,8 16,6 18,3 13,2 13,8 9 5 15 8 ENE 19 33 0,0
15.06.2018 10:00:00 14,0 8,4 17,0 16,7 12,8 13,8 8 5 15 8 ENE 23 56 0,0
15.06.2018 09:00:00 13,1 8,9 15,8 14,0 12,6 13,8 7 4 15 8 ENE 12 59 0,0
15.06.2018 08:00:00 11,7 8,4 12,3 11,7 12,6 13,8 7 4 16 9 ENE 9 60 0,0
15.06.2018 07:00:00 9,9 8,5 10,2 9,2 12,8 13,8 3 1 9 5 ENE 9 60 0,0
15.06.2018 06:00:00 5,7 5,4 3,7 8,1 13,1 13,8 2 1 9 5 NW 4,5 0 0,0
15.06.2018 05:00:00 5,9 5,4 3,5 8,5 13,4 13,8 3 2 9 5 NW 5 0 0,0
15.06.2018 04:00:00 6,1 5,5 3,8 8,9 13,8 13,9 6 3 9 5 WNW 6 0 0,0
15.06.2018 03:00:00 6,7 6,1 4,0 9,3 14,1 13,9 4 2 11 6 W 13 0 0,0
15.06.2018 02:00:00 7,0 6,3 4,5 9,8 14,5 13,9 7 4 12 6 W 16 0 0,0
15.06.2018 01:00:00 6,8 6,1 4,3 10,4 14,9 13,9 5 3 12 6 W 17 0 0,0
15.06.2018 00:00:00 7,0 6,4 3,6 11,2 15,2 13,9 4 2 10 6 W 17 0 0,0
14.06.2018 23:00:00 7,4 6,8 4,0 12,3 15,6 13,9 5 3 8 5 W 16 0 0,0
14.06.2018 22:00:00 8,6 7,4 4,1 13,7 15,8 13,9 7 4 11 6 SW 32 0 0,0
14.06.2018 21:00:00 10,9 8,4 6,1 15,5 15,8 14,0 5 3 12 6 SW 48 28 0,0
14.06.2018 20:00:00 13,4 7,6 11,5 17,4 15,7 14,0 5 3 16 9 WSW 64 59 0,0
14.06.2018 19:00:00 14,0 7,7 16,0 18,6 15,5 14,0 6 4 19 10 SW 61 42 0,0
14.06.2018 18:00:00 13,9 6,5 15,7 19,4 15,1 14,0 9 5 19 10 WSW 29 50 0,0
14.06.2018 17:00:00 13,4 6,5 16,5 19,4 14,7 14,0 8 4 18 10 W 32 47 0,0

tt = Température de l'air
td = dewpoint
tt 5cm = Température de l'air 5cm
tt -5cm = Température de l'air -5cm
tt -20cm = Température de l'air -20cm
tt -100cm = Température de l'air -100cm
ff = Vitesse du vent
fx = gusts
dd = Direction du vent
vv = visibility
sd = Ensoleillement
rr = Quantités de précipitations

stations d'obs. à proximité